createdAt,value
2022-10-01T00:00:14.626Z,0
2022-10-01T00:01:14.875Z,0
2022-10-01T00:02:15.209Z,0
2022-10-01T00:03:15.423Z,0
2022-10-01T00:04:15.840Z,0
2022-10-01T00:05:16.001Z,0
2022-10-01T00:06:16.149Z,0
2022-10-01T00:07:16.296Z,0
2022-10-01T00:08:16.449Z,0
2022-10-01T00:09:16.613Z,0
2022-10-01T00:10:16.765Z,0
2022-10-01T00:11:16.928Z,0
2022-10-01T00:12:17.090Z,0
2022-10-01T00:13:17.265Z,0
2022-10-01T00:14:17.411Z,0
2022-10-01T00:15:17.566Z,0
2022-10-01T00:16:17.790Z,0
2022-10-01T00:17:18.163Z,0
2022-10-01T00:18:18.313Z,0
2022-10-01T00:19:18.464Z,0
2022-10-01T00:20:18.614Z,0
2022-10-01T00:21:18.771Z,0
2022-10-01T00:22:18.922Z,0
2022-10-01T00:23:19.079Z,0
2022-10-01T00:24:19.225Z,0
2022-10-01T00:25:19.380Z,0
2022-10-01T00:26:19.526Z,0
2022-10-01T00:27:19.670Z,0
2022-10-01T00:28:19.873Z,0
2022-10-01T00:29:20.240Z,0
2022-10-01T00:30:20.392Z,0
2022-10-01T00:31:20.603Z,0
2022-10-01T00:32:20.913Z,0
2022-10-01T00:33:21.061Z,0
2022-10-01T00:34:21.214Z,0
2022-10-01T00:35:21.361Z,0
2022-10-01T00:36:21.507Z,0
2022-10-01T00:37:21.651Z,0
2022-10-01T00:38:21.796Z,0
2022-10-01T00:39:21.945Z,0
2022-10-01T00:40:22.093Z,0
2022-10-01T00:41:22.252Z,0
2022-10-01T00:42:22.407Z,0
2022-10-01T00:43:22.564Z,0
2022-10-01T00:44:22.722Z,0
2022-10-01T00:45:22.874Z,0
2022-10-01T00:46:23.060Z,0
2022-10-01T00:47:23.381Z,0
2022-10-01T00:48:23.531Z,0
2022-10-01T00:49:23.691Z,0
2022-10-01T00:50:23.856Z,0
2022-10-01T00:51:24.007Z,0
2022-10-01T00:52:24.161Z,0
2022-10-01T00:53:24.308Z,0
2022-10-01T00:54:24.458Z,0
2022-10-01T00:55:24.607Z,0
2022-10-01T00:56:24.765Z,0
2022-10-01T00:57:24.914Z,0
2022-10-01T00:58:25.063Z,0
2022-10-01T00:59:25.216Z,0
2022-10-01T01:00:25.364Z,0
2022-10-01T01:01:25.589Z,0
2022-10-01T01:02:25.888Z,0
2022-10-01T01:03:26.195Z,0
2022-10-01T01:04:26.339Z,0
2022-10-01T01:05:26.485Z,0
2022-10-01T01:06:26.635Z,0
2022-10-01T01:07:26.782Z,0
2022-10-01T01:08:26.928Z,0
2022-10-01T01:09:27.090Z,0
2022-10-01T01:10:27.243Z,0
2022-10-01T01:11:27.404Z,0
2022-10-01T01:12:27.553Z,0
2022-10-01T01:13:27.725Z,0
2022-10-01T01:14:27.881Z,0
2022-10-01T01:15:28.031Z,0
2022-10-01T01:16:28.284Z,0
2022-10-01T01:17:28.448Z,0
2022-10-01T01:18:28.614Z,0
2022-10-01T01:19:28.760Z,0
2022-10-01T01:20:28.913Z,0
2022-10-01T01:21:29.056Z,0
2022-10-01T01:22:29.202Z,0
2022-10-01T01:23:29.377Z,0
2022-10-01T01:24:29.521Z,0
2022-10-01T01:25:29.676Z,0
2022-10-01T01:26:29.827Z,0
2022-10-01T01:27:30.027Z,0
2022-10-01T01:28:30.278Z,0
2022-10-01T01:29:30.461Z,0
2022-10-01T01:30:30.614Z,0
2022-10-01T01:31:30.889Z,0
2022-10-01T01:32:31.863Z,0
2022-10-01T01:33:32.032Z,0
2022-10-01T01:34:32.181Z,0
2022-10-01T01:35:32.343Z,0
2022-10-01T01:36:32.502Z,0
2022-10-01T01:37:32.647Z,0
2022-10-01T01:38:32.792Z,0
2022-10-01T01:39:32.948Z,0
2022-10-01T01:40:33.099Z,0
2022-10-01T01:41:33.541Z,0
2022-10-01T01:42:34.382Z,0
2022-10-01T01:43:34.534Z,0
2022-10-01T01:44:34.683Z,0
2022-10-01T01:45:34.867Z,0
2022-10-01T01:46:35.133Z,0
2022-10-01T01:47:35.292Z,0
2022-10-01T01:48:35.438Z,0
2022-10-01T01:49:35.587Z,0
2022-10-01T01:50:35.740Z,0
2022-10-01T01:51:36.132Z,0
2022-10-01T01:52:37.007Z,0
2022-10-01T01:53:37.154Z,0
2022-10-01T01:54:37.305Z,0
2022-10-01T01:55:37.459Z,0
2022-10-01T01:56:37.612Z,0
2022-10-01T01:57:37.764Z,0
2022-10-01T01:58:37.912Z,0
2022-10-01T01:59:38.069Z,0
2022-10-01T02:00:38.218Z,0
2022-10-01T02:01:38.675Z,0
2022-10-01T02:02:39.858Z,0
2022-10-01T02:03:40.142Z,0
2022-10-01T02:04:40.296Z,0
2022-10-01T02:05:40.445Z,0
2022-10-01T02:06:40.593Z,0
2022-10-01T02:07:40.746Z,0
2022-10-01T02:08:40.895Z,0
2022-10-01T02:09:41.061Z,0
2022-10-01T02:10:41.210Z,0
2022-10-01T02:11:41.356Z,0
2022-10-01T02:12:41.499Z,0
2022-10-01T02:13:41.651Z,0
2022-10-01T02:14:41.802Z,0
2022-10-01T02:15:42.005Z,0
2022-10-01T02:16:42.508Z,0
2022-10-01T02:17:42.660Z,0
2022-10-01T02:18:42.815Z,0
2022-10-01T02:19:42.967Z,0
2022-10-01T02:20:43.115Z,0
2022-10-01T02:21:43.267Z,0
2022-10-01T02:22:43.430Z,0
2022-10-01T02:23:43.596Z,0
2022-10-01T02:24:43.745Z,0
2022-10-01T02:25:43.894Z,0
2022-10-01T02:26:44.048Z,0
2022-10-01T02:27:44.230Z,0
2022-10-01T02:28:44.542Z,0
2022-10-01T02:29:44.693Z,0
2022-10-01T02:30:44.865Z,0
2022-10-01T02:31:45.219Z,0
2022-10-01T02:32:45.371Z,0
2022-10-01T02:33:45.524Z,0
2022-10-01T02:34:45.669Z,0
2022-10-01T02:35:45.827Z,0
2022-10-01T02:36:45.977Z,0
2022-10-01T02:37:46.130Z,0
2022-10-01T02:38:46.285Z,0
2022-10-01T02:39:46.429Z,0
2022-10-01T02:40:46.575Z,0
2022-10-01T02:41:46.722Z,0
2022-10-01T02:42:46.877Z,0
2022-10-01T02:43:47.034Z,0
2022-10-01T02:44:47.184Z,0
2022-10-01T02:45:47.409Z,0
2022-10-01T02:46:47.742Z,0
2022-10-01T02:47:47.898Z,0
2022-10-01T02:48:48.046Z,0
2022-10-01T02:49:48.196Z,0
2022-10-01T02:50:48.353Z,0
2022-10-01T02:51:48.505Z,0
2022-10-01T02:52:48.654Z,0
2022-10-01T02:53:48.805Z,0
2022-10-01T02:54:48.963Z,0
2022-10-01T02:55:49.115Z,0
2022-10-01T02:56:50.339Z,0
2022-10-01T02:57:56.511Z,0
2022-10-01T02:58:56.663Z,0
2022-10-01T02:59:56.808Z,0
2022-10-01T03:00:56.961Z,0
2022-10-01T03:01:57.176Z,0
2022-10-01T03:02:57.838Z,0
2022-10-01T03:03:58.210Z,0
2022-10-01T03:04:58.361Z,0
2022-10-01T03:05:58.513Z,0
2022-10-01T03:06:58.660Z,0
2022-10-01T03:07:58.809Z,0
2022-10-01T03:08:58.951Z,0
2022-10-01T03:09:59.102Z,0
2022-10-01T03:10:59.261Z,0
2022-10-01T03:11:59.432Z,0
2022-10-01T03:12:59.601Z,0
2022-10-01T03:13:59.765Z,0
2022-10-01T03:14:59.915Z,0
2022-10-01T03:16:00.163Z,0
2022-10-01T03:17:00.555Z,0
2022-10-01T03:18:00.705Z,0
2022-10-01T03:19:00.912Z,0
2022-10-01T03:20:01.075Z,0
2022-10-01T03:21:01.225Z,0
2022-10-01T03:22:01.374Z,0
2022-10-01T03:23:01.519Z,0
2022-10-01T03:24:01.672Z,0
2022-10-01T03:25:01.818Z,0
2022-10-01T03:26:01.973Z,0
2022-10-01T03:27:02.123Z,0
2022-10-01T03:28:02.341Z,0
2022-10-01T03:29:02.629Z,0
2022-10-01T03:30:02.785Z,0
2022-10-01T03:31:02.992Z,0
2022-10-01T03:32:03.283Z,0
2022-10-01T03:33:03.435Z,0
2022-10-01T03:34:03.590Z,0
2022-10-01T03:35:03.737Z,0
2022-10-01T03:36:03.881Z,0
2022-10-01T03:37:04.028Z,0
2022-10-01T03:38:04.178Z,0
2022-10-01T03:39:04.324Z,0
2022-10-01T03:40:04.477Z,0
2022-10-01T03:41:04.628Z,0
2022-10-01T03:42:04.776Z,0
2022-10-01T03:43:04.924Z,0
2022-10-01T03:44:05.083Z,0
2022-10-01T03:45:05.241Z,0
2022-10-01T03:46:05.476Z,0
2022-10-01T03:47:05.806Z,0
2022-10-01T03:48:05.958Z,0
2022-10-01T03:49:06.120Z,0
2022-10-01T03:50:06.268Z,0
2022-10-01T03:51:06.418Z,0
2022-10-01T03:52:06.578Z,0
2022-10-01T03:53:06.757Z,0
2022-10-01T03:54:06.901Z,0
2022-10-01T03:55:07.060Z,0
2022-10-01T03:56:07.226Z,0
2022-10-01T03:57:07.375Z,0
2022-10-01T03:58:07.524Z,0
2022-10-01T03:59:07.673Z,0
2022-10-01T04:00:07.822Z,0
2022-10-01T04:01:07.971Z,0
2022-10-01T04:02:08.259Z,0
2022-10-01T04:03:08.982Z,0
2022-10-01T04:04:09.351Z,0
2022-10-01T04:05:09.517Z,0
2022-10-01T04:06:09.669Z,0
2022-10-01T04:07:09.818Z,0
2022-10-01T04:08:09.971Z,0
2022-10-01T04:09:10.120Z,0
2022-10-01T04:10:10.269Z,0
2022-10-01T04:11:10.424Z,0
2022-10-01T04:12:10.570Z,0
2022-10-01T04:13:10.724Z,0
2022-10-01T04:14:10.879Z,0
2022-10-01T04:15:11.025Z,0
2022-10-01T04:16:11.320Z,0
2022-10-01T04:17:11.692Z,0
2022-10-01T04:18:11.839Z,0
2022-10-01T04:19:11.982Z,0
2022-10-01T04:20:12.224Z,0
2022-10-01T04:21:12.373Z,0
2022-10-01T04:22:12.520Z,0
2022-10-01T04:23:12.674Z,0
2022-10-01T04:24:12.826Z,0
2022-10-01T04:25:12.983Z,0
2022-10-01T04:26:13.127Z,0
2022-10-01T04:27:13.275Z,0
2022-10-01T04:28:13.512Z,0
2022-10-01T04:29:13.913Z,0
2022-10-01T04:30:14.044Z,0
2022-10-01T04:31:14.211Z,0
2022-10-01T04:32:14.621Z,0
2022-10-01T04:33:14.752Z,0
2022-10-01T04:34:14.886Z,0
2022-10-01T04:35:15.017Z,0
2022-10-01T04:36:15.145Z,0
2022-10-01T04:37:15.271Z,0
2022-10-01T04:38:15.402Z,0
2022-10-01T04:39:15.546Z,0
2022-10-01T04:40:15.674Z,0
2022-10-01T04:41:15.799Z,0
2022-10-01T04:42:15.928Z,0
2022-10-01T04:43:16.061Z,0
2022-10-01T04:44:16.187Z,0
2022-10-01T04:45:16.331Z,0
2022-10-01T04:46:16.479Z,0
2022-10-01T04:47:16.789Z,0
2022-10-01T04:48:16.916Z,0
2022-10-01T04:49:17.054Z,0
2022-10-01T04:50:17.175Z,0
2022-10-01T04:51:17.306Z,0
2022-10-01T04:52:17.430Z,0
2022-10-01T04:53:17.559Z,0
2022-10-01T04:54:17.689Z,0
2022-10-01T04:55:17.832Z,0
2022-10-01T04:56:17.960Z,0
2022-10-01T04:57:18.090Z,0
2022-10-01T04:58:18.221Z,0
2022-10-01T04:59:18.345Z,0
2022-10-01T05:00:18.469Z,0
2022-10-01T05:01:18.634Z,0
2022-10-01T05:02:19.121Z,0
2022-10-01T05:03:19.433Z,0
2022-10-01T05:04:19.598Z,1
2022-10-01T05:05:19.737Z,3
2022-10-01T05:06:19.869Z,4
2022-10-01T05:07:20.008Z,5
2022-10-01T05:08:20.144Z,6
2022-10-01T05:09:20.283Z,8
2022-10-01T05:10:20.406Z,9
2022-10-01T05:11:20.537Z,11
2022-10-01T05:12:24.385Z,13
2022-10-01T05:13:24.864Z,19
2022-10-01T05:14:24.989Z,32
2022-10-01T05:15:25.115Z,51
2022-10-01T05:16:25.286Z,88.96
2022-10-01T05:17:25.741Z,110
2022-10-01T05:18:25.879Z,150
2022-10-01T05:19:28.033Z,169.92
2022-10-01T05:20:28.311Z,189.92
2022-10-01T05:21:28.432Z,209.92
2022-10-01T05:22:28.558Z,209.92
2022-10-01T05:23:28.681Z,240
2022-10-01T05:24:28.814Z,240
2022-10-01T05:25:28.938Z,240
2022-10-01T05:26:29.061Z,240
2022-10-01T05:27:29.187Z,240
2022-10-01T05:28:29.525Z,209.92
2022-10-01T05:29:30.133Z,209.92
2022-10-01T05:30:30.260Z,209.92
2022-10-01T05:31:30.445Z,180
2022-10-01T05:32:30.712Z,180
2022-10-01T05:33:30.840Z,180
2022-10-01T05:34:30.968Z,180
2022-10-01T05:35:31.139Z,180
2022-10-01T05:36:31.263Z,160
2022-10-01T05:37:31.391Z,160
2022-10-01T05:38:31.518Z,160
2022-10-01T05:39:31.644Z,160
2022-10-01T05:40:31.769Z,180
2022-10-01T05:41:32.180Z,180
2022-10-01T05:42:33.531Z,200
2022-10-01T05:43:33.662Z,220
2022-10-01T05:44:33.784Z,220
2022-10-01T05:45:33.976Z,249.92
2022-10-01T05:46:34.436Z,249.92
2022-10-01T05:47:34.560Z,280
2022-10-01T05:48:34.689Z,280
2022-10-01T05:49:34.813Z,309.92
2022-10-01T05:50:34.938Z,309.92
2022-10-01T05:51:35.272Z,309.92
2022-10-01T05:52:36.430Z,349.76
2022-10-01T05:53:36.567Z,349.76
2022-10-01T05:54:36.691Z,349.76
2022-10-01T05:55:36.818Z,349.76
2022-10-01T05:56:36.954Z,349.76
2022-10-01T05:57:37.076Z,389.76
2022-10-01T05:58:37.208Z,389.76
2022-10-01T05:59:37.344Z,389.76
2022-10-01T06:00:37.485Z,389.76
2022-10-01T06:01:37.657Z,389.76
2022-10-01T06:02:38.205Z,389.76
2022-10-01T06:03:38.788Z,389.76
2022-10-01T06:04:41.130Z,389.76
2022-10-01T06:05:41.532Z,429.76
2022-10-01T06:06:41.657Z,429.76
2022-10-01T06:07:41.778Z,429.76
2022-10-01T06:08:41.901Z,480
2022-10-01T06:09:42.032Z,480
2022-10-01T06:10:42.158Z,480
2022-10-01T06:11:42.282Z,480
2022-10-01T06:12:42.423Z,480
2022-10-01T06:13:42.548Z,480
2022-10-01T06:14:42.672Z,480
2022-10-01T06:15:42.794Z,480
2022-10-01T06:16:43.017Z,529.92
2022-10-01T06:17:43.550Z,529.92
2022-10-01T06:18:43.678Z,529.92
2022-10-01T06:19:43.805Z,529.92
2022-10-01T06:20:43.928Z,529.92
2022-10-01T06:21:44.047Z,529.92
2022-10-01T06:22:44.174Z,529.92
2022-10-01T06:23:44.365Z,529.92
2022-10-01T06:24:44.504Z,529.92
2022-10-01T06:25:44.627Z,529.92
2022-10-01T06:26:44.760Z,569.92
2022-10-01T06:27:44.944Z,569.92
2022-10-01T06:28:45.223Z,569.92
2022-10-01T06:29:45.349Z,569.92
2022-10-01T06:30:45.473Z,569.92
2022-10-01T06:31:45.653Z,569.92
2022-10-01T06:32:45.913Z,569.92
2022-10-01T06:33:46.041Z,569.92
2022-10-01T06:34:46.163Z,569.92
2022-10-01T06:35:46.290Z,569.92
2022-10-01T06:36:46.408Z,619.84
2022-10-01T06:37:46.532Z,619.84
2022-10-01T06:38:46.658Z,619.84
2022-10-01T06:39:46.783Z,619.84
2022-10-01T06:40:46.908Z,619.84
2022-10-01T06:41:47.036Z,619.84
2022-10-01T06:42:47.163Z,619.84
2022-10-01T06:43:47.289Z,619.84
2022-10-01T06:44:47.425Z,619.84
2022-10-01T06:45:47.594Z,619.84
2022-10-01T06:46:47.792Z,669.44
2022-10-01T06:47:47.923Z,669.44
2022-10-01T06:48:48.055Z,669.44
2022-10-01T06:49:48.178Z,669.44
2022-10-01T06:50:48.301Z,669.44
2022-10-01T06:51:48.426Z,739.84
2022-10-01T06:52:48.551Z,739.84
2022-10-01T06:53:48.677Z,819.84
2022-10-01T06:54:48.799Z,819.84
2022-10-01T06:55:48.920Z,819.84
2022-10-01T06:56:49.044Z,819.84
2022-10-01T06:57:49.168Z,819.84
2022-10-01T06:58:49.293Z,909.44
2022-10-01T06:59:49.420Z,909.44
2022-10-01T07:00:49.631Z,909.44
2022-10-01T07:01:53.009Z,909.44
2022-10-01T07:02:56.766Z,919.68
2022-10-01T07:03:56.890Z,919.68
2022-10-01T07:04:57.016Z,919.68
2022-10-01T07:05:57.141Z,919.68
2022-10-01T07:06:57.273Z,919.68
2022-10-01T07:07:57.399Z,919.68
2022-10-01T07:08:57.527Z,999.68
2022-10-01T07:09:57.650Z,999.68
2022-10-01T07:10:57.784Z,999.68
2022-10-01T07:11:57.905Z,999.68
2022-10-01T07:12:58.029Z,999.68
2022-10-01T07:13:58.155Z,999.68
2022-10-01T07:14:58.287Z,999.68
2022-10-01T07:15:58.418Z,999.68
2022-10-01T07:16:58.556Z,999.68
2022-10-01T07:17:58.681Z,999.68
2022-10-01T07:18:58.812Z,1639.68
2022-10-01T07:19:58.938Z,1459.2
2022-10-01T07:20:59.062Z,1459.2
2022-10-01T07:21:59.188Z,1299.84
2022-10-01T07:22:59.307Z,1299.84
2022-10-01T07:23:59.436Z,1299.84
2022-10-01T07:24:59.559Z,1299.84
2022-10-01T07:25:59.690Z,1299.84
2022-10-01T07:27:02.618Z,1299.84
2022-10-01T07:28:07.842Z,1319.68
2022-10-01T07:29:08.208Z,1319.68
2022-10-01T07:30:08.331Z,1319.68
2022-10-01T07:31:08.454Z,1319.68
2022-10-01T07:32:08.755Z,1440
2022-10-01T07:33:09.168Z,1440
2022-10-01T07:34:09.337Z,1600
2022-10-01T07:35:09.465Z,1600
2022-10-01T07:36:09.590Z,1600
2022-10-01T07:37:09.715Z,1760
2022-10-01T07:38:09.848Z,1760
2022-10-01T07:39:09.968Z,1760
2022-10-01T07:40:10.100Z,1760
2022-10-01T07:41:10.227Z,1760
2022-10-01T07:42:10.349Z,1939.2
2022-10-01T07:43:10.473Z,1939.2
2022-10-01T07:44:10.604Z,1939.2
2022-10-01T07:45:10.734Z,1939.2
2022-10-01T07:46:10.885Z,1939.2
2022-10-01T07:47:11.118Z,2138.88
2022-10-01T07:48:11.245Z,2138.88
2022-10-01T07:49:11.378Z,2138.88
2022-10-01T07:50:11.504Z,2138.88
2022-10-01T07:51:11.631Z,2138.88
2022-10-01T07:52:13.369Z,2138.88
2022-10-01T07:53:13.699Z,2138.88
2022-10-01T07:54:13.826Z,2138.88
2022-10-01T07:55:13.949Z,2138.88
2022-10-01T07:56:14.087Z,2138.88
2022-10-01T07:57:14.215Z,2240
2022-10-01T07:58:14.342Z,2240
2022-10-01T07:59:14.467Z,2240
2022-10-01T08:00:14.593Z,2240
2022-10-01T08:01:14.756Z,2240
2022-10-01T08:02:15.124Z,2240
2022-10-01T08:03:15.541Z,2240
2022-10-01T08:04:15.665Z,2240
2022-10-01T08:05:15.787Z,2240
2022-10-01T08:06:15.912Z,2240
2022-10-01T08:07:16.046Z,1999.36
2022-10-01T08:08:16.168Z,1999.36
2022-10-01T08:09:16.292Z,1999.36
2022-10-01T08:10:16.413Z,1999.36
2022-10-01T08:11:16.535Z,1999.36
2022-10-01T08:12:16.668Z,1999.36
2022-10-01T08:13:16.792Z,2219.52
2022-10-01T08:14:16.928Z,2219.52
2022-10-01T08:15:17.051Z,2219.52
2022-10-01T08:16:17.232Z,2219.52
2022-10-01T08:17:17.509Z,2219.52
2022-10-01T08:18:17.628Z,2219.52
2022-10-01T08:19:17.759Z,2219.52
2022-10-01T08:20:17.889Z,2219.52
2022-10-01T08:21:18.016Z,2219.52
2022-10-01T08:22:18.138Z,2219.52
2022-10-01T08:23:18.269Z,2279.68
2022-10-01T08:24:18.400Z,2279.68
2022-10-01T08:25:18.527Z,2279.68
2022-10-01T08:26:18.653Z,2279.68
2022-10-01T08:27:18.781Z,2279.68
2022-10-01T08:28:18.969Z,2279.68
2022-10-01T08:29:19.201Z,2279.68
2022-10-01T08:30:19.324Z,2279.68
2022-10-01T08:31:19.517Z,2279.68
2022-10-01T08:32:19.826Z,2279.68
2022-10-01T08:33:19.954Z,2159.36
2022-10-01T08:34:20.081Z,2159.36
2022-10-01T08:35:20.209Z,2159.36
2022-10-01T08:36:20.339Z,2159.36
2022-10-01T08:37:20.463Z,2159.36
2022-10-01T08:38:20.594Z,2159.36
2022-10-01T08:39:20.713Z,1939.2
2022-10-01T08:40:20.846Z,1939.2
2022-10-01T08:41:23.180Z,1939.2
2022-10-01T08:42:23.615Z,1939.2
2022-10-01T08:43:23.742Z,1939.2
2022-10-01T08:44:23.873Z,1939.2
2022-10-01T08:45:24.012Z,1939.2
2022-10-01T08:46:24.139Z,1939.2
2022-10-01T08:47:24.264Z,1939.2
2022-10-01T08:48:24.389Z,1939.2
2022-10-01T08:49:24.515Z,1978.88
2022-10-01T08:50:24.714Z,1978.88
2022-10-01T08:51:24.841Z,1978.88
2022-10-01T08:52:24.965Z,1978.88
2022-10-01T08:53:25.095Z,1978.88
2022-10-01T08:54:25.220Z,1978.88
2022-10-01T08:55:25.349Z,1978.88
2022-10-01T08:56:25.477Z,2179.84
2022-10-01T08:57:25.602Z,2439.68
2022-10-01T08:58:25.732Z,3018.24
2022-10-01T08:59:27.466Z,3358.72
2022-10-01T09:00:27.714Z,3719.68
2022-10-01T09:01:27.870Z,4119.04
2022-10-01T09:02:28.163Z,4119.04
2022-10-01T09:03:28.288Z,4119.04
2022-10-01T09:04:28.461Z,4119.04
2022-10-01T09:05:28.813Z,4119.04
2022-10-01T09:06:28.952Z,3678.72
2022-10-01T09:07:29.089Z,3678.72
2022-10-01T09:08:29.215Z,3279.36
2022-10-01T09:09:29.339Z,3279.36
2022-10-01T09:10:29.479Z,3279.36
2022-10-01T09:11:29.610Z,3279.36
2022-10-01T09:12:29.739Z,2918.4
2022-10-01T09:13:29.867Z,2918.4
2022-10-01T09:14:29.999Z,2918.4
2022-10-01T09:15:30.167Z,2918.4
2022-10-01T09:16:30.371Z,2599.68
2022-10-01T09:17:30.701Z,2599.68
2022-10-01T09:18:30.826Z,2599.68
2022-10-01T09:19:30.953Z,2599.68
2022-10-01T09:20:31.083Z,2599.68
2022-10-01T09:21:31.323Z,2599.68
2022-10-01T09:22:32.096Z,2599.68
2022-10-01T09:23:32.221Z,2599.68
2022-10-01T09:24:32.348Z,2599.68
2022-10-01T09:25:32.472Z,2599.68
2022-10-01T09:26:32.592Z,2458.88
2022-10-01T09:27:32.719Z,2458.88
2022-10-01T09:28:32.904Z,2458.88
2022-10-01T09:29:33.175Z,2458.88
2022-10-01T09:30:33.297Z,2458.88
2022-10-01T09:31:33.705Z,2199.04
2022-10-01T09:32:34.713Z,1978.88
2022-10-01T09:33:34.839Z,1978.88
2022-10-01T09:34:34.967Z,1779.2
2022-10-01T09:35:35.112Z,1779.2
2022-10-01T09:36:35.254Z,1779.2
2022-10-01T09:37:35.377Z,1959.68
2022-10-01T09:38:35.508Z,1959.68
2022-10-01T09:39:35.636Z,1959.68
2022-10-01T09:40:35.768Z,1959.68
2022-10-01T09:41:36.162Z,1760
2022-10-01T09:42:37.312Z,1760
2022-10-01T09:43:37.436Z,1760
2022-10-01T09:44:37.563Z,1959.68
2022-10-01T09:45:37.776Z,2159.36
2022-10-01T09:46:38.169Z,2379.52
2022-10-01T09:47:38.295Z,2659.84
2022-10-01T09:48:38.419Z,2938.88
2022-10-01T09:49:38.543Z,2938.88
2022-10-01T09:50:38.668Z,2938.88
2022-10-01T09:51:40.585Z,2938.88
2022-10-01T09:52:41.821Z,2938.88
2022-10-01T09:53:41.946Z,2938.88
2022-10-01T09:54:42.069Z,2938.88
2022-10-01T09:55:42.194Z,2938.88
2022-10-01T09:56:42.405Z,2938.88
2022-10-01T09:57:42.733Z,2639.36
2022-10-01T09:58:42.856Z,2639.36
2022-10-01T09:59:42.978Z,2639.36
2022-10-01T10:00:43.105Z,2639.36
2022-10-01T10:01:43.331Z,2639.36
2022-10-01T10:02:48.751Z,2938.88
2022-10-01T10:03:50.298Z,3059.2
2022-10-01T10:04:50.424Z,3258.88
2022-10-01T10:05:50.562Z,3258.88
2022-10-01T10:06:50.710Z,3258.88
2022-10-01T10:07:50.833Z,3258.88
2022-10-01T10:08:50.963Z,3258.88
2022-10-01T10:09:51.086Z,3258.88
2022-10-01T10:10:51.210Z,3258.88
2022-10-01T10:11:51.337Z,3258.88
2022-10-01T10:12:51.463Z,3258.88
2022-10-01T10:13:51.581Z,3258.88
2022-10-01T10:14:51.711Z,3279.36
2022-10-01T10:15:51.905Z,3279.36
2022-10-01T10:16:52.164Z,3637.76
2022-10-01T10:17:52.295Z,3637.76
2022-10-01T10:18:52.508Z,3637.76
2022-10-01T10:19:52.657Z,3637.76
2022-10-01T10:20:52.783Z,3637.76
2022-10-01T10:21:52.982Z,3258.88
2022-10-01T10:22:53.119Z,3258.88
2022-10-01T10:23:53.243Z,3258.88
2022-10-01T10:24:53.383Z,3258.88
2022-10-01T10:25:53.519Z,3258.88
2022-10-01T10:26:53.648Z,3258.88
2022-10-01T10:27:53.782Z,3258.88
2022-10-01T10:28:54.041Z,3258.88
2022-10-01T10:29:54.170Z,3258.88
2022-10-01T10:30:54.306Z,3258.88
2022-10-01T10:31:54.433Z,3520
2022-10-01T10:32:54.558Z,3520
2022-10-01T10:33:54.696Z,3520
2022-10-01T10:34:57.011Z,3520
2022-10-01T10:36:03.722Z,3138.56
2022-10-01T10:37:03.850Z,3138.56
2022-10-01T10:38:03.979Z,2818.56
2022-10-01T10:39:04.105Z,2818.56
2022-10-01T10:40:04.229Z,2519.04
2022-10-01T10:41:04.350Z,2519.04
2022-10-01T10:42:04.472Z,2519.04
2022-10-01T10:43:04.604Z,2519.04
2022-10-01T10:44:04.748Z,2519.04
2022-10-01T10:45:04.902Z,2259.2
2022-10-01T10:46:05.037Z,2259.2
2022-10-01T10:47:05.338Z,2019.84
2022-10-01T10:48:05.472Z,2019.84
2022-10-01T10:49:05.614Z,2019.84
2022-10-01T10:50:05.739Z,2019.84
2022-10-01T10:51:05.878Z,2019.84
2022-10-01T10:52:06.154Z,2019.84
2022-10-01T10:53:06.342Z,2019.84
2022-10-01T10:54:06.469Z,2019.84
2022-10-01T10:55:06.603Z,2019.84
2022-10-01T10:56:06.725Z,2259.2
2022-10-01T10:57:06.863Z,2259.2
2022-10-01T10:58:06.984Z,2519.04
2022-10-01T10:59:07.117Z,2519.04
2022-10-01T11:00:07.241Z,2519.04
2022-10-01T11:01:07.436Z,2519.04
2022-10-01T11:02:07.821Z,2519.04
2022-10-01T11:03:08.358Z,2519.04
2022-10-01T11:04:08.483Z,2519.04
2022-10-01T11:05:08.605Z,2519.04
2022-10-01T11:06:08.736Z,2798.08
2022-10-01T11:07:08.873Z,2798.08
2022-10-01T11:08:09.001Z,2798.08
2022-10-01T11:09:09.123Z,2798.08
2022-10-01T11:10:09.256Z,2798.08
2022-10-01T11:11:09.393Z,2798.08
2022-10-01T11:12:09.524Z,2798.08
2022-10-01T11:13:09.657Z,2798.08
2022-10-01T11:14:09.792Z,2798.08
2022-10-01T11:15:09.925Z,2798.08
2022-10-01T11:16:10.116Z,2519.04
2022-10-01T11:17:10.481Z,2519.04
2022-10-01T11:18:10.628Z,2519.04
2022-10-01T11:19:10.781Z,2519.04
2022-10-01T11:20:10.905Z,2259.2
2022-10-01T11:21:11.028Z,2259.2
2022-10-01T11:22:11.152Z,2259.2
2022-10-01T11:23:11.277Z,2259.2
2022-10-01T11:24:11.401Z,2259.2
2022-10-01T11:25:11.538Z,2259.2
2022-10-01T11:26:11.661Z,2259.2
2022-10-01T11:27:11.833Z,2259.2
2022-10-01T11:28:12.019Z,2259.2
2022-10-01T11:29:12.234Z,2259.2
2022-10-01T11:30:12.423Z,2138.88
2022-10-01T11:31:12.832Z,2138.88
2022-10-01T11:32:13.057Z,2138.88
2022-10-01T11:33:13.182Z,2138.88
2022-10-01T11:34:13.305Z,1920
2022-10-01T11:35:13.430Z,1920
2022-10-01T11:36:13.551Z,1920
2022-10-01T11:37:13.681Z,1920
2022-10-01T11:38:13.807Z,1920
2022-10-01T11:39:13.933Z,1920
2022-10-01T11:40:14.057Z,1920
2022-10-01T11:41:14.188Z,1920
2022-10-01T11:42:14.317Z,1719.04
2022-10-01T11:43:14.437Z,1719.04
2022-10-01T11:44:14.562Z,1719.04
2022-10-01T11:45:14.686Z,1719.04
2022-10-01T11:46:14.847Z,1719.04
2022-10-01T11:47:15.151Z,1719.04
2022-10-01T11:48:15.270Z,1719.04
2022-10-01T11:49:15.398Z,1539.84
2022-10-01T11:50:15.530Z,1539.84
2022-10-01T11:51:15.656Z,1539.84
2022-10-01T11:52:15.787Z,1539.84
2022-10-01T11:53:15.911Z,1539.84
2022-10-01T11:54:16.034Z,1539.84
2022-10-01T11:55:16.159Z,1539.84
2022-10-01T11:56:16.283Z,1539.84
2022-10-01T11:57:16.437Z,1539.84
2022-10-01T11:58:16.566Z,1699.84
2022-10-01T11:59:16.695Z,1699.84
2022-10-01T12:00:16.827Z,1879.04
2022-10-01T12:01:16.987Z,1879.04
2022-10-01T12:02:17.159Z,1879.04
2022-10-01T12:03:17.372Z,1879.04
2022-10-01T12:04:17.497Z,1879.04
2022-10-01T12:05:17.655Z,1879.04
2022-10-01T12:06:20.096Z,1879.04
2022-10-01T12:07:28.476Z,2019.84
2022-10-01T12:08:28.602Z,2080
2022-10-01T12:09:28.725Z,2080
2022-10-01T12:10:28.848Z,2298.88
2022-10-01T12:11:28.986Z,2298.88
2022-10-01T12:12:29.123Z,2539.52
2022-10-01T12:13:29.247Z,2539.52
2022-10-01T12:14:29.372Z,2798.08
2022-10-01T12:15:29.497Z,2798.08
2022-10-01T12:16:29.758Z,2798.08
2022-10-01T12:17:30.179Z,2798.08
2022-10-01T12:18:30.304Z,2798.08
2022-10-01T12:19:30.435Z,2798.08
2022-10-01T12:20:30.561Z,2798.08
2022-10-01T12:21:30.712Z,2798.08
2022-10-01T12:22:30.857Z,2798.08
2022-10-01T12:23:30.987Z,2798.08
2022-10-01T12:24:31.109Z,2579.2
2022-10-01T12:25:31.231Z,2579.2
2022-10-01T12:26:31.400Z,2579.2
2022-10-01T12:27:31.765Z,2579.2
2022-10-01T12:28:31.972Z,2579.2
2022-10-01T12:29:32.327Z,2579.2
2022-10-01T12:30:32.451Z,2579.2
2022-10-01T12:31:32.643Z,2579.2
2022-10-01T12:32:32.915Z,2579.2
2022-10-01T12:33:33.047Z,2579.2
2022-10-01T12:34:33.179Z,2698.24
2022-10-01T12:35:33.301Z,2698.24
2022-10-01T12:36:33.642Z,2698.24
2022-10-01T12:37:34.636Z,2698.24
2022-10-01T12:38:34.769Z,2698.24
2022-10-01T12:39:34.897Z,2698.24
2022-10-01T12:40:35.023Z,2698.24
2022-10-01T12:41:35.146Z,2698.24
2022-10-01T12:42:35.275Z,2698.24
2022-10-01T12:43:35.400Z,2419.2
2022-10-01T12:44:35.527Z,2419.2
2022-10-01T12:45:35.649Z,2419.2
2022-10-01T12:46:36.072Z,2159.36
2022-10-01T12:47:37.192Z,2159.36
2022-10-01T12:48:37.320Z,2159.36
2022-10-01T12:49:37.443Z,1939.2
2022-10-01T12:50:37.570Z,1939.2
2022-10-01T12:51:37.693Z,1939.2
2022-10-01T12:52:37.823Z,1939.2
2022-10-01T12:53:37.961Z,1939.2
2022-10-01T12:54:38.088Z,1939.2
2022-10-01T12:55:38.223Z,1939.2
2022-10-01T12:56:38.611Z,2138.88
2022-10-01T12:57:39.164Z,2138.88
2022-10-01T12:58:39.296Z,2379.52
2022-10-01T12:59:39.421Z,2379.52
2022-10-01T13:00:39.609Z,2618.88
2022-10-01T13:01:39.881Z,2618.88
2022-10-01T13:02:40.143Z,2897.92
2022-10-01T13:03:40.268Z,2897.92
2022-10-01T13:04:40.393Z,2897.92
2022-10-01T13:05:40.530Z,2897.92
2022-10-01T13:06:40.667Z,2897.92
2022-10-01T13:07:40.798Z,2897.92
2022-10-01T13:08:40.936Z,2897.92
2022-10-01T13:09:43.328Z,2897.92
2022-10-01T13:10:49.339Z,2739.2
2022-10-01T13:11:49.469Z,2599.68
2022-10-01T13:12:49.600Z,2599.68
2022-10-01T13:13:49.731Z,2339.84
2022-10-01T13:14:49.857Z,2339.84
2022-10-01T13:15:50.012Z,2339.84
2022-10-01T13:16:50.328Z,2339.84
2022-10-01T13:17:50.453Z,2339.84